Time;durP1;ratioP1;P1;durP2;ratioP2;P2;SDS_P1;SDS_P2;PMS_P1;PMS_P2;Temp;Humidity;BMP_temperature;BMP_pressure;BME280_temperature;BME280_humidity;BME280_pressure;Samples;Min_cycle;Max_cycle;Signal;HPM_P1;HPM_P2
2021/12/09 00:01:24;;;;;;;40.45;18.83;;;51.80;2227.20;;;;;;5071922;28;20021;-76
2021/12/09 00:03:57;;;;;;;38.58;19.05;;;51.80;2227.20;;;;;;5071878;28;20020;-76
2021/12/09 00:06:27;;;;;;;38.40;17.40;;;51.80;2227.20;;;;;;5071641;28;20024;-75
2021/12/09 00:09:04;;;;;;;35.70;18.73;;;51.90;2227.20;;;;;;5070592;28;20033;-75
2021/12/09 00:11:30;;;;;;;38.55;18.33;;;51.80;2227.20;;;;;;5070320;28;20542;-74
2021/12/09 00:13:56;;;;;;;;;;;51.80;2227.20;;;;;;5072446;28;20535;-75
2021/12/09 00:16:21;;;;;;;32.63;16.63;;;51.40;2227.20;;;;;;5073252;28;19908;-76
2021/12/09 00:18:47;;;;;;;;;;;51.70;2227.20;;;;;;5074088;28;20036;-76
2021/12/09 00:21:14;;;;;;;35.42;16.25;;;51.70;2227.20;;;;;;5075320;28;19912;-74
2021/12/09 00:23:39;;;;;;;34.95;17.90;;;51.60;2227.20;;;;;;5075313;28;20021;-76
2021/12/09 00:26:06;;;;;;;;;;;51.70;2227.20;;;;;;5075810;28;20054;-76
2021/12/09 00:28:32;;;;;;;35.53;18.00;;;51.70;2227.20;;;;;;5073667;28;19916;-77
2021/12/09 00:30:57;;;;;;;;;;;51.60;2227.20;;;;;;5074064;28;20516;-77
2021/12/09 00:33:23;;;;;;;35.92;16.45;;;51.70;2227.20;;;;;;5074768;28;19951;-74
2021/12/09 00:35:57;;;;;;;;;;;51.70;2227.20;;;;;;5074340;28;20027;-74
2021/12/09 00:38:36;;;;;;;36.70;16.33;;;51.50;2227.20;;;;;;5074906;28;19908;-74
2021/12/09 00:41:13;;;;;;;32.50;15.85;;;51.60;2227.20;;;;;;5075007;28;20017;-75
2021/12/09 00:43:40;;;;;;;37.72;18.95;;;51.60;2227.20;;;;;;5074893;28;20039;-74
2021/12/09 00:46:07;;;;;;;36.15;17.23;;;51.60;2227.20;;;;;;5074605;28;20108;-76
2021/12/09 00:48:33;;;;;;;36.63;17.77;;;51.70;2227.20;;;;;;5073394;28;20851;-76
2021/12/09 00:51:00;;;;;;;38.55;16.30;;;51.70;2227.20;;;;;;5074624;28;20466;-76
2021/12/09 00:53:26;;;;;;;35.40;17.67;;;51.60;2227.20;;;;;;5073090;28;20389;-75
2021/12/09 00:55:51;;;;;;;;;;;51.70;2227.20;;;;;;5073633;28;20037;-77
2021/12/09 00:58:17;;;;;;;34.33;17.38;;;51.70;2227.20;;;;;;5074399;28;20334;-75
2021/12/09 01:00:43;;;;;;;;;;;51.80;2227.20;;;;;;5073897;28;20492;-74
2021/12/09 01:03:09;;;;;;;38.13;17.63;;;51.70;2227.20;;;;;;5074263;28;19967;-75
2021/12/09 01:05:35;;;;;;;;;;;51.70;2227.20;;;;;;5075123;28;20020;-76
2021/12/09 01:08:01;;;;;;;31.55;14.13;;;51.60;2227.20;;;;;;5074510;28;19915;-77
2021/12/09 01:10:28;;;;;;;;;;;51.50;2227.20;;;;;;5074815;28;20090;-77
2021/12/09 01:12:55;;;;;;;24.95;11.32;;;51.60;2227.20;;;;;;5074255;28;19911;-75
2021/12/09 01:15:22;;;;;;;29.58;15.48;;;51.70;2227.20;;;;;;5074397;28;20029;-75
2021/12/09 01:17:48;;;;;;;32.67;15.13;;;51.40;2227.20;;;;;;5073821;28;20048;-75
2021/12/09 01:20:17;;;;;;;26.77;14.73;;;51.50;2227.20;;;;;;5072606;28;20024;-75
2021/12/09 01:22:45;;;;;;;30.30;14.18;;;51.50;2227.20;;;;;;5072893;28;20037;-75
2021/12/09 01:25:16;;;;;;;31.42;16.13;;;51.50;2227.20;;;;;;5072726;28;20442;-76
2021/12/09 01:27:45;;;;;;;32.60;15.13;;;51.60;2227.20;;;;;;5072873;28;20218;-76
2021/12/09 01:30:16;;;;;;;31.75;15.48;;;51.60;2227.20;;;;;;5073690;28;20113;-75
2021/12/09 01:32:48;;;;;;;32.47;16.10;;;51.70;2227.20;;;;;;5072744;28;20565;-75
2021/12/09 01:35:15;;;;;;;30.98;14.45;;;51.80;2227.20;;;;;;5072358;28;20466;-74
2021/12/09 01:37:41;;;;;;;30.63;14.68;;;51.80;2227.20;;;;;;5073794;28;20038;-76
2021/12/09 01:40:08;;;;;;;;;;;51.80;2227.20;;;;;;5074423;28;20100;-77
2021/12/09 01:42:34;;;;;;;19.60;9.82;;;51.80;2227.20;;;;;;5072426;28;19904;-76
2021/12/09 01:44:59;;;;;;;;;;;51.80;2227.20;;;;;;5074070;28;20028;-75
2021/12/09 01:47:25;;;;;;;31.67;14.55;;;51.70;2227.20;;;;;;5073157;28;19916;-76
2021/12/09 01:49:51;;;;;;;;;;;51.60;2227.20;;;;;;5072801;28;20124;-77
2021/12/09 01:52:16;;;;;;;28.15;13.85;;;51.80;2227.20;;;;;;5073281;28;19908;-75
2021/12/09 01:54:42;;;;;;;;;;;51.70;2227.20;;;;;;5074012;28;20089;-75
2021/12/09 01:57:08;;;;;;;27.20;13.32;;;51.70;2227.20;;;;;;5072200;28;20361;-76
2021/12/09 01:59:34;;;;;;;;;;;51.60;2227.20;;;;;;5073702;28;20055;-77
2021/12/09 02:02:00;;;;;;;28.90;14.07;;;51.60;2227.20;;;;;;5072164;28;20345;-75
2021/12/09 02:04:25;;;;;;;;;;;51.70;2227.20;;;;;;5072261;28;20052;-76
2021/12/09 02:06:52;;;;;;;27.83;12.77;;;51.80;2227.20;;;;;;5073163;28;20386;-76
2021/12/09 02:09:19;;;;;;;30.30;14.20;;;51.90;2227.20;;;;;;5072933;28;20032;-76
2021/12/09 02:11:46;;;;;;;25.92;13.10;;;51.90;2227.20;;;;;;5071918;28;20082;-76
2021/12/09 02:14:12;;;;;;;24.15;12.95;;;51.90;2227.20;;;;;;5071759;28;20036;-74
2021/12/09 02:16:39;;;;;;;26.20;14.40;;;51.90;2227.20;;;;;;5072928;28;20032;-77
2021/12/09 02:19:05;;;;;;;30.27;13.52;;;51.90;2227.20;;;;;;5072649;28;20045;-75
2021/12/09 02:21:32;;;;;;;;;;;51.90;2227.20;;;;;;5073504;28;20166;-77
2021/12/09 02:24:02;;;;;;;23.40;10.93;;;52.00;2227.20;;;;;;5071752;28;19904;-75
2021/12/09 02:26:32;;;;;;;22.48;11.32;;;51.90;2227.20;;;;;;5071637;28;20413;-75
2021/12/09 02:28:59;;;;;;;23.67;12.23;;;52.00;2227.20;;;;;;5071801;28;20043;-76
2021/12/09 02:31:26;;;;;;;23.10;11.63;;;52.10;2227.20;;;;;;5071198;28;20028;-74
2021/12/09 02:33:53;;;;;;;19.98;10.63;;;76.80;2227.20;;;;;;5071768;28;20107;-75
2021/12/09 02:36:19;;;;;;;22.63;11.52;;;52.10;2227.20;;;;;;5071346;28;20381;-76
2021/12/09 02:38:45;;;;;;;;;;;76.90;2227.20;;;;;;5072874;28;20363;-75
2021/12/09 02:41:16;;;;;;;21.77;9.52;;;77.00;2227.20;;;;;;5071310;28;19904;-75
2021/12/09 02:43:46;;;;;;;17.48;8.65;;;77.00;2227.20;;;;;;5072394;28;20017;-74
2021/12/09 02:46:12;;;;;;;19.17;9.60;;;77.00;2227.20;;;;;;5071504;28;20029;-75
2021/12/09 02:48:38;;;;;;;22.58;10.90;;;76.90;2227.20;;;;;;5072162;28;20079;-77
2021/12/09 02:51:05;;;;;;;;;;;77.10;2227.20;;;;;;5071890;28;20060;-75
2021/12/09 02:53:31;;;;;;;18.88;8.45;;;77.00;2227.20;;;;;;5071220;28;20428;-75
2021/12/09 02:55:57;;;;;;;22.15;10.73;;;76.90;2227.20;;;;;;5071411;28;20043;-75
2021/12/09 02:58:23;;;;;;;;;;;76.90;2227.20;;;;;;5071478;28;20036;-75
2021/12/09 03:01:02;;;;;;;20.48;10.65;;;76.80;2227.20;;;;;;5071300;28;19904;-76
2021/12/09 03:03:28;;;;;;;21.30;10.63;;;76.90;2227.20;;;;;;5071449;28;20028;-77
2021/12/09 03:05:54;;;;;;;;;;;76.90;2227.20;;;;;;5070961;28;20500;-75
2021/12/09 03:08:32;;;;;;;19.30;9.73;;;76.90;2227.20;;;;;;5071121;28;20011;-75
2021/12/09 03:10:59;;;;;;;17.55;9.20;;;76.90;2227.20;;;;;;5072322;28;20028;-76
2021/12/09 03:13:25;;;;;;;17.15;8.50;;;77.00;2227.20;;;;;;5071071;28;20024;-76
2021/12/09 03:15:50;;;;;;;;;;;77.20;2227.20;;;;;;5072803;28;20077;-76
2021/12/09 03:18:17;;;;;;;20.02;9.02;;;77.20;2227.20;;;;;;5071774;28;19920;-75
2021/12/09 03:20:43;;;;;;;19.25;9.32;;;77.40;2227.20;;;;;;5071179;28;20068;-75
2021/12/09 03:23:08;;;;;;;;;;;77.40;2227.20;;;;;;5071498;28;20086;-76
2021/12/09 03:25:34;;;;;;;16.98;8.90;;;77.40;2227.20;;;;;;5072263;28;19955;-74
2021/12/09 03:27:59;;;;;;;;;;;77.50;2227.20;;;;;;5072533;28;20037;-76
2021/12/09 03:30:25;;;;;;;14.82;9.18;;;77.50;2227.20;;;;;;5072185;28;19911;-74
2021/12/09 03:32:51;;;;;;;;;;;77.60;2227.20;;;;;;5071142;28;20052;-75
2021/12/09 03:35:17;;;;;;;15.35;8.60;;;77.60;2227.20;;;;;;5072264;28;19908;-76
2021/12/09 03:37:42;;;;;;;;;;;77.60;2227.20;;;;;;5071251;28;20477;-77
2021/12/09 03:40:09;;;;;;;18.58;9.43;;;77.60;2227.20;;;;;;5071035;28;20365;-76
2021/12/09 03:42:38;;;;;;;17.33;7.60;;;77.60;2227.20;;;;;;5070622;28;20028;-75
2021/12/09 03:45:06;;;;;;;18.08;8.55;;;77.60;2227.20;;;;;;5070593;28;20028;-74
2021/12/09 03:47:33;;;;;;;17.42;9.25;;;77.60;2227.20;;;;;;5070503;28;20055;-75
2021/12/09 03:50:00;;;;;;;13.15;8.02;;;77.70;2227.20;;;;;;5071682;28;20025;-76
2021/12/09 03:52:26;;;;;;;16.55;8.93;;;77.60;2227.20;;;;;;5074621;28;20100;-75
2021/12/09 03:54:52;;;;;;;16.92;8.88;;;77.70;2227.20;;;;;;5074036;28;20054;-76
2021/12/09 03:57:17;;;;;;;;;;;77.70;2227.20;;;;;;5076134;28;20021;-76
2021/12/09 03:59:44;;;;;;;15.65;8.02;;;102.40;2227.20;;;;;;5075410;28;20357;-74
2021/12/09 04:02:11;;;;;;;15.38;8.35;;;102.40;2227.20;;;;;;5075893;28;20017;-76
2021/12/09 04:04:36;;;;;;;15.90;8.25;;;102.40;2227.20;;;;;;5091148;28;20035;-75
2021/12/09 04:07:02;;;;;;;;;;;102.50;2227.20;;;;;;5074884;28;20028;-76
2021/12/09 04:09:28;;;;;;;14.90;6.70;;;102.50;2227.20;;;;;;5075347;28;19909;-75
2021/12/09 04:11:54;;;;;;;;;;;102.50;2227.20;;;;;;5075693;28;20031;-75
2021/12/09 04:14:20;;;;;;;16.85;7.20;;;102.50;2227.20;;;;;;5075225;28;19904;-75
2021/12/09 04:16:47;;;;;;;15.10;6.65;;;102.50;2227.20;;;;;;5073738;28;20037;-74
2021/12/09 04:19:13;;;;;;;14.43;7.68;;;102.40;2227.20;;;;;;5075193;28;20029;-75
2021/12/09 04:21:39;;;;;;;;;;;102.40;2227.20;;;;;;5074414;28;20078;-75
2021/12/09 04:24:07;;;;;;;13.38;7.65;;;77.70;2227.20;;;;;;5073672;28;19911;-76
2021/12/09 04:26:54;;;;;;;12.60;6.50;;;102.40;2227.20;;;;;;5075024;28;20040;-75
2021/12/09 04:29:20;;;;;;;15.43;7.57;;;77.70;2227.20;;;;;;5073172;28;20165;-77
2021/12/09 04:31:47;;;;;;;;;;;77.70;2227.20;;;;;;5074661;28;20072;-75
2021/12/09 04:34:14;;;;;;;14.77;7.40;;;77.70;2227.20;;;;;;5075068;28;19916;-76
2021/12/09 04:36:40;;;;;;;10.82;6.63;;;102.40;2227.20;;;;;;5073979;28;20017;-77
2021/12/09 04:39:06;;;;;;;;;;;102.40;2227.20;;;;;;5074179;28;20032;-75
2021/12/09 04:41:32;;;;;;;11.82;6.53;;;102.40;2227.20;;;;;;5074937;28;19905;-76
2021/12/09 04:43:57;;;;;;;;;;;102.40;2227.20;;;;;;5075263;28;20105;-78
2021/12/09 04:46:23;;;;;;;15.95;8.35;;;102.50;2227.20;;;;;;5073660;28;20356;-76
2021/12/09 04:48:48;;;;;;;;;;;102.50;2227.20;;;;;;5073643;28;20052;-77
2021/12/09 04:51:14;;;;;;;15.68;6.65;;;102.50;2227.20;;;;;;5073368;28;19931;-75
2021/12/09 04:53:40;;;;;;;;;;;102.50;2227.20;;;;;;5075233;28;20056;-75
2021/12/09 04:56:06;;;;;;;16.83;6.72;;;102.50;2227.20;;;;;;5073232;28;19951;-74
2021/12/09 04:58:33;;;;;;;13.25;6.72;;;102.50;2227.20;;;;;;5073518;28;20048;-77
2021/12/09 05:01:03;;;;;;;13.57;6.93;;;102.60;2227.20;;;;;;5074202;28;20099;-77
2021/12/09 05:03:28;;;;;;;14.63;6.15;;;102.70;2227.20;;;;;;5073337;28;20546;-75
2021/12/09 05:05:56;;;;;;;;;;;102.60;2227.20;;;;;;5073614;28;20020;-75
2021/12/09 05:08:24;;;;;;;9.30;5.22;;;102.70;2227.20;;;;;;5074524;28;19919;-76
2021/12/09 05:13:30;;;;;;;10.90;5.70;;;102.60;2227.20;;;;;;5074297;28;20048;-77
2021/12/09 05:15:57;;;;;;;13.68;5.30;;;102.60;2227.20;;;;;;5074459;28;20013;-75
2021/12/09 05:18:24;;;;;;;9.88;4.85;;;102.70;2227.20;;;;;;5073715;28;20053;-75
2021/12/09 05:20:50;;;;;;;9.70;5.40;;;102.60;2227.20;;;;;;5074207;28;20551;-75
2021/12/09 05:23:19;;;;;;;14.82;5.78;;;102.70;2227.20;;;;;;5072790;28;20074;-77
2021/12/09 05:25:45;;;;;;;10.93;6.50;;;102.70;2227.20;;;;;;5074169;28;20345;-76
2021/12/09 05:28:15;;;;;;;9.80;5.60;;;102.80;2227.20;;;;;;5072311;28;20537;-76
2021/12/09 05:33:30;;;;;;;9.05;4.82;;;102.90;2227.20;;;;;;5074317;28;20047;-76
2021/12/09 05:35:56;;;;;;;8.55;4.88;;;102.90;2227.20;;;;;;5073552;28;20032;-75
2021/12/09 05:38:22;;;;;;;12.70;5.68;;;102.90;2227.20;;;;;;5073927;28;20028;-76
2021/12/09 05:40:48;;;;;;;;;;;103.00;2227.20;;;;;;5072700;28;20033;-74
2021/12/09 05:43:15;;;;;;;10.68;6.18;;;103.00;2227.20;;;;;;5073814;28;19904;-74
2021/12/09 05:45:41;;;;;;;12.20;6.38;;;103.00;2227.20;;;;;;5073863;28;20020;-75
2021/12/09 05:48:09;;;;;;;15.98;6.93;;;103.00;2227.20;;;;;;5072131;28;20493;-77
2021/12/09 05:50:35;;;;;;;11.68;6.75;;;103.00;2227.20;;;;;;5073836;28;20470;-75
2021/12/09 05:53:01;;;;;;;9.23;5.10;;;103.00;2227.20;;;;;;5073500;28;20016;-74
2021/12/09 05:55:27;;;;;;;;;;;103.00;2227.20;;;;;;5073930;28;20538;-75
2021/12/09 05:57:52;;;;;;;9.48;5.10;;;103.10;2227.20;;;;;;5073339;28;19908;-75
2021/12/09 06:00:18;;;;;;;;;;;103.10;2227.20;;;;;;5074010;28;20020;-75
2021/12/09 06:02:44;;;;;;;10.85;5.35;;;103.10;2227.20;;;;;;5073324;28;20350;-76
2021/12/09 06:05:09;;;;;;;;;;;103.20;2227.20;;;;;;5072435;28;20066;-75
2021/12/09 06:07:35;;;;;;;9.02;4.90;;;103.20;2227.20;;;;;;5072817;28;20505;-76
2021/12/09 06:10:03;;;;;;;;;;;103.20;2227.20;;;;;;5073641;28;20036;-77
2021/12/09 06:12:29;;;;;;;9.43;5.25;;;103.20;2227.20;;;;;;5072874;28;19927;-76
2021/12/09 06:14:55;;;;;;;8.55;4.65;;;103.20;2227.20;;;;;;5073165;28;20469;-75
2021/12/09 06:17:20;;;;;;;;;;;103.10;2227.20;;;;;;5073499;28;20072;-77
2021/12/09 06:19:46;;;;;;;9.65;5.45;;;103.10;2227.20;;;;;;5088384;28;19904;-75
2021/12/09 06:22:12;;;;;;;;;;;103.10;2227.20;;;;;;5073700;28;20086;-76
2021/12/09 06:24:37;;;;;;;11.60;4.30;;;103.10;2227.20;;;;;;5088449;28;20345;-75
2021/12/09 06:27:04;;;;;;;;;;;103.10;2227.20;;;;;;5073450;28;20448;-75
2021/12/09 06:29:32;;;;;;;19.70;5.32;;;103.10;2227.20;;;;;;5071331;28;20396;-75
2021/12/09 06:31:58;;;;;;;8.18;4.20;;;103.10;2227.20;;;;;;5072942;28;20388;-76
2021/12/09 06:34:23;;;;;;;;;;;103.20;2227.20;;;;;;5073381;28;20059;-75
2021/12/09 06:36:49;;;;;;;10.98;4.93;;;103.10;2227.20;;;;;;5072540;28;19955;-74
2021/12/09 06:39:15;;;;;;;;;;;103.00;2227.20;;;;;;5073280;28;20358;-76
2021/12/09 06:41:41;;;;;;;8.30;4.30;;;103.10;2227.20;;;;;;5072434;28;20374;-76
2021/12/09 06:44:06;;;;;;;;;;;103.10;2227.20;;;;;;5071883;28;20865;-77
2021/12/09 06:46:32;;;;;;;17.30;5.82;;;103.10;2227.20;;;;;;5072345;28;19943;-75
2021/12/09 06:48:58;;;;;;;;;;;103.00;2227.20;;;;;;5071739;28;20085;-74
2021/12/09 06:51:24;;;;;;;11.95;5.20;;;103.10;2227.20;;;;;;5071990;28;19999;-75
2021/12/09 06:53:50;;;;;;;11.50;5.47;;;103.20;2227.20;;;;;;5071148;28;20548;-76
2021/12/09 06:56:15;;;;;;;;;;;103.10;2227.20;;;;;;5072837;28;20123;-75
2021/12/09 06:58:41;;;;;;;10.13;5.03;;;103.20;2227.20;;;;;;5072528;28;19905;-74
2021/12/09 07:01:07;;;;;;;;;;;103.20;2227.20;;;;;;5072590;28;20029;-74
2021/12/09 07:03:34;;;;;;;9.95;4.97;;;103.20;2227.20;;;;;;5072198;28;19954;-74
2021/12/09 07:06:06;;;;;;;10.98;6.30;;;103.20;2227.20;;;;;;5071060;28;20021;-74
2021/12/09 07:08:36;;;;;;;10.50;5.30;;;103.20;2227.20;;;;;;5071901;28;20242;-74
2021/12/09 07:11:02;;;;;;;12.85;6.72;;;103.30;2227.20;;;;;;5072319;28;20090;-74
2021/12/09 07:13:30;;;;;;;13.45;6.10;;;103.30;2227.20;;;;;;5072060;28;20028;-75
2021/12/09 07:15:58;;;;;;;12.73;7.30;;;103.30;2227.20;;;;;;5072245;28;20496;-74
2021/12/09 07:18:25;;;;;;;11.52;5.85;;;128.00;2252.80;;;;;;5071769;28;20527;-74
2021/12/09 07:20:52;;;;;;;14.20;6.55;;;103.30;2227.20;;;;;;5071978;28;20020;-74
2021/12/09 07:23:18;;;;;;;13.15;6.88;;;128.00;2252.80;;;;;;5072278;28;20028;-75
2021/12/09 07:25:43;;;;;;;;;;;103.30;2227.20;;;;;;5076655;28;20032;-76
2021/12/09 07:28:09;;;;;;;11.95;6.20;;;128.00;2252.80;;;;;;5076337;28;20007;-75
2021/12/09 07:30:35;;;;;;;;;;;128.00;2252.80;;;;;;5076448;28;20036;-75
2021/12/09 07:33:01;;;;;;;14.45;6.47;;;128.00;2252.80;;;;;;5076336;28;19911;-75
2021/12/09 07:35:30;;;;;;;;;;;128.10;2252.80;;;;;;5077469;28;20024;-77
2021/12/09 07:37:57;;;;;;;15.13;7.63;;;128.10;2252.80;;;;;;5076142;28;20415;-74
2021/12/09 07:40:24;;;;;;;10.27;6.30;;;128.10;2252.80;;;;;;5075925;28;20031;-74
2021/12/09 07:42:50;;;;;;;11.57;5.32;;;128.10;2252.80;;;;;;5074773;28;20028;-77
2021/12/09 07:45:17;;;;;;;;;;;128.10;2252.80;;;;;;5075267;28;20112;-75
2021/12/09 07:47:44;;;;;;;10.88;5.35;;;128.20;2252.80;;;;;;5074278;28;19955;-75
2021/12/09 07:50:14;;;;;;;12.20;5.55;;;128.20;2252.80;;;;;;5075808;28;20539;-75
2021/12/09 07:52:44;;;;;;;10.75;6.22;;;128.20;2252.80;;;;;;5074231;28;20032;-75
2021/12/09 07:55:12;;;;;;;12.60;6.55;;;128.20;2252.80;;;;;;5075672;28;20028;-74
2021/12/09 07:57:39;;;;;;;16.05;6.40;;;128.30;2252.80;;;;;;5075390;28;20032;-74
2021/12/09 08:00:11;;;;;;;17.85;6.82;;;128.10;2252.80;;;;;;5075771;28;20017;-74
2021/12/09 08:02:37;;;;;;;10.80;5.50;;;128.30;2252.80;;;;;;5083874;28;20043;-75
2021/12/09 08:05:03;;;;;;;;;;;128.30;2252.80;;;;;;5086452;28;20016;-74
2021/12/09 08:07:28;;;;;;;11.30;5.72;;;128.30;2252.80;;;;;;5093763;28;20250;-76
2021/12/09 08:09:55;;;;;;;10.07;5.03;;;128.30;2252.80;;;;;;5095711;28;20038;-75
2021/12/09 08:12:20;;;;;;;;;;;128.30;2252.80;;;;;;5096237;28;20024;-74
2021/12/09 08:14:46;;;;;;;11.82;5.80;;;128.30;2252.80;;;;;;5078893;28;19919;-75
2021/12/09 08:17:44;;;;;;;;;;;128.30;2252.80;;;;;;5080243;28;20037;-74
2021/12/09 08:19:59;;;;;;;10.33;5.47;;;128.30;2252.80;;;;;;5084273;28;19965;-76
2021/12/09 08:22:25;;;;;;;;;;;128.40;2252.80;;;;;;5086853;28;20473;-76
2021/12/09 08:24:55;;;;;;;11.65;6.50;;;128.40;2252.80;;;;;;5078183;28;19904;-75
2021/12/09 08:27:21;;;;;;;9.95;5.55;;;128.50;2252.80;;;;;;5084558;28;20028;-75
2021/12/09 08:29:47;;;;;;;11.07;4.80;;;128.50;2252.80;;;;;;5084327;28;20028;-76
2021/12/09 08:32:12;;;;;;;;;;;128.50;2252.80;;;;;;5084733;28;20116;-74
2021/12/09 08:34:38;;;;;;;10.05;5.53;;;128.60;2252.80;;;;;;5084720;28;19904;-75
2021/12/09 08:37:04;;;;;;;;;;;128.50;2252.80;;;;;;5077067;28;20032;-77
2021/12/09 08:39:30;;;;;;;8.77;4.88;;;128.50;2252.80;;;;;;5073729;28;19911;-82
2021/12/09 08:41:56;;;;;;;;;;;128.50;2252.80;;;;;;5073815;28;20040;-76
2021/12/09 08:44:22;;;;;;;12.02;4.88;;;128.40;2252.80;;;;;;5074823;28;20305;-77
2021/12/09 08:46:48;;;;;;;10.48;5.28;;;128.50;2252.80;;;;;;5073675;28;20116;-74
2021/12/09 08:49:13;;;;;;;;;;;128.50;2252.80;;;;;;5074922;28;20040;-75
2021/12/09 08:51:39;;;;;;;15.73;5.10;;;128.60;2252.80;;;;;;5073718;28;19971;-75
2021/12/09 08:54:05;;;;;;;;;;;128.50;2252.80;;;;;;5076592;28;20435;-74
2021/12/09 08:56:32;;;;;;;10.75;3.95;;;128.50;2252.80;;;;;;5073542;28;20401;-74
2021/12/09 08:58:58;;;;;;;9.10;5.55;;;128.40;2252.80;;;;;;5074662;28;20378;-77
2021/12/09 09:01:24;;;;;;;;;;;128.50;2252.80;;;;;;5075100;28;20023;-74
2021/12/09 09:03:49;;;;;;;11.05;5.10;;;128.50;2252.80;;;;;;5074331;28;19982;-76
2021/12/09 09:06:15;;;;;;;;;;;128.50;2252.80;;;;;;5074837;28;20020;-76
2021/12/09 09:08:41;;;;;;;10.15;4.82;;;128.50;2252.80;;;;;;5072875;28;20006;-75
2021/12/09 09:11:07;;;;;;;;;;;128.50;2252.80;;;;;;5073211;28;20466;-74
2021/12/09 09:13:33;;;;;;;10.40;4.95;;;128.70;2252.80;;;;;;5073202;28;19950;-75
2021/12/09 09:15:59;;;;;;;7.50;4.70;;;128.70;2252.80;;;;;;5072923;28;20043;-74
2021/12/09 09:18:24;;;;;;;;;;;128.70;2252.80;;;;;;5073155;28;20048;-74
2021/12/09 09:20:50;;;;;;;12.35;5.82;;;128.80;2252.80;;;;;;5074032;28;19951;-74
2021/12/09 09:23:17;;;;;;;;;;;128.80;2252.80;;;;;;5074489;28;20021;-75
2021/12/09 09:25:43;;;;;;;;;;;128.90;2252.80;;;;;;5073136;28;20385;-75
2021/12/09 09:28:10;;;;;;;12.98;6.47;;;128.90;2252.80;;;;;;5072544;28;19920;-76
2021/12/09 09:30:39;;;;;;;11.57;5.80;;;128.90;2252.80;;;;;;5072750;28;20035;-75
2021/12/09 09:33:08;;;;;;;13.05;5.80;;;128.90;2252.80;;;;;;5074053;28;20056;-73
2021/12/09 09:35:37;;;;;;;17.13;7.68;;;153.60;2252.80;;;;;;5074201;28;20438;-77
2021/12/09 09:38:03;;;;;;;14.07;6.07;;;153.60;2252.80;;;;;;5072654;28;20027;-84
2021/12/09 09:40:40;;;;;;;11.25;5.70;;;153.60;2252.80;;;;;;5074157;28;20095;-78
2021/12/09 09:43:32;;;;;;;10.15;4.97;;;153.70;2252.80;;;;;;5079928;28;20021;-74
2021/12/09 09:45:54;;;;;;;;;;;153.70;2252.80;;;;;;5082018;28;20033;-74
2021/12/09 09:48:20;;;;;;;8.70;4.20;;;153.70;2252.80;;;;;;5075424;28;20270;-78
2021/12/09 09:50:46;;;;;;;;;;;153.70;2252.80;;;;;;5074198;28;20077;-78
2021/12/09 09:53:12;;;;;;;7.40;3.63;;;153.80;2252.80;;;;;;5073567;28;20277;-78
2021/12/09 09:55:37;;;;;;;;;;;153.80;2252.80;;;;;;5074208;28;20028;-74
2021/12/09 09:58:04;;;;;;;8.15;4.32;;;153.80;2252.80;;;;;;5072525;28;19909;-76
2021/12/09 10:00:30;;;;;;;9.25;5.20;;;153.80;2252.80;;;;;;5073307;28;20023;-74
2021/12/09 10:02:59;;;;;;;7.78;4.47;;;153.90;2252.80;;;;;;5073474;28;20025;-77
2021/12/09 10:05:33;;;;;;;9.07;5.18;;;153.90;2252.80;;;;;;5072106;28;20020;-75
2021/12/09 10:07:59;;;;;;;10.13;5.38;;;154.00;2252.80;;;;;;5075310;28;20028;-76
2021/12/09 10:10:24;;;;;;;;;;;154.00;2252.80;;;;;;5082355;28;20474;-76
2021/12/09 10:13:05;;;;;;;10.18;4.72;;;154.10;2252.80;;;;;;5083136;28;20013;-76
2021/12/09 10:15:53;;;;;;;8.95;4.28;;;154.20;2252.80;;;;;;5082641;28;20016;-78
2021/12/09 10:18:38;;;;;;;8.18;4.22;;;154.30;2252.80;;;;;;5082991;28;20040;-75
2021/12/09 10:21:06;;;;;;;7.65;4.18;;;154.40;2252.80;;;;;;5083664;28;20024;-75
2021/12/09 10:23:45;;;;;;;13.45;5.78;;;154.40;2252.80;;;;;;5081283;28;20027;-77
2021/12/09 10:26:30;;;;;;;9.85;4.90;;;154.40;2252.80;;;;;;5053196;28;20021;-75
2021/12/09 10:29:08;;;;;;;8.80;4.65;;;154.40;2252.80;;;;;;5051606;28;20033;-76
2021/12/09 10:32:00;;;;;;;7.53;4.90;;;154.50;2252.80;;;;;;5052908;28;20025;-76
2021/12/09 10:37:14;;;;;;;9.07;4.55;;;179.20;2252.80;;;;;;5053079;28;20028;-78
2021/12/09 10:40:11;;;;;;;8.07;4.88;;;179.30;2252.80;;;;;;5051458;28;20025;-77
2021/12/09 10:42:43;;;;;;;13.18;6.07;;;179.30;2252.80;;;;;;5076636;28;20025;-77
2021/12/09 10:45:25;;;;;;;11.10;5.05;;;179.30;2252.80;;;;;;5084370;28;20059;-77
2021/12/09 10:47:58;;;;;;;10.68;5.05;;;179.40;2252.80;;;;;;5082267;28;20085;-74
2021/12/09 10:50:43;;;;;;;11.02;5.53;;;179.40;2252.80;;;;;;5093124;28;20031;-74
2021/12/09 10:55:46;;;;;;;9.57;5.47;;;179.50;2252.80;;;;;;5085051;28;20035;-78
2021/12/09 10:58:15;;;;;;;15.90;6.13;;;179.50;2252.80;;;;;;5090730;28;20173;-77
2021/12/09 11:01:01;;;;;;;11.10;5.70;;;179.60;2252.80;;;;;;5091488;28;20072;-78
2021/12/09 11:03:40;;;;;;;7.95;4.40;;;179.70;2252.80;;;;;;5092475;28;20032;-74
2021/12/09 11:06:08;;;;;;;9.50;5.85;;;179.70;2252.80;;;;;;5092495;28;20024;-78
2021/12/09 11:08:40;;;;;;;9.80;4.97;;;179.80;2252.80;;;;;;5092257;28;20036;-74
2021/12/09 11:11:19;;;;;;;16.20;7.47;;;179.80;2252.80;;;;;;5090738;28;20051;-79
2021/12/09 11:14:08;;;;;;;9.50;5.82;;;179.80;2252.80;;;;;;5092594;28;20028;-77
2021/12/09 11:17:02;;;;;;;9.55;4.95;;;179.80;2252.80;;;;;;5092712;28;20020;-78
2021/12/09 11:22:01;;;;;;;9.23;4.47;;;179.80;2252.80;;;;;;5092831;28;20044;-78
2021/12/09 11:24:34;;;;;;;10.52;4.03;;;179.80;2252.80;;;;;;5092738;28;20066;-77
2021/12/09 11:27:07;;;;;;;7.15;4.00;;;179.70;2252.80;;;;;;5092533;28;20434;-79
2021/12/09 11:29:40;;;;;;;9.65;4.38;;;179.80;2252.80;;;;;;5091036;28;20135;-74
2021/12/09 11:32:21;;;;;;;6.68;4.15;;;179.80;2252.80;;;;;;5090856;28;20032;-76
2021/12/09 11:39:57;;;;;;;6.78;3.95;;;180.00;2252.80;;;;;;5092326;28;20020;-74
2021/12/09 11:42:31;;;;;;;7.68;3.97;;;180.00;2252.80;;;;;;5091008;28;20095;-77
2021/12/09 11:44:57;;;;;;;6.72;4.05;;;180.00;2252.80;;;;;;5092259;28;20024;-75
2021/12/09 11:47:23;;;;;;;;;;;180.00;2252.80;;;;;;5092609;28;20028;-76
2021/12/09 11:49:51;;;;;;;9.30;4.80;;;180.10;2252.80;;;;;;5092583;28;20427;-76
2021/12/09 11:52:19;;;;;;;8.43;4.15;;;180.10;2252.80;;;;;;5090780;28;20024;-77
2021/12/09 11:55:02;;;;;;;9.15;3.25;;;180.10;2252.80;;;;;;5092371;28;20016;-74
2021/12/09 11:57:49;;;;;;;10.25;4.97;;;204.80;2252.80;;;;;;5091072;28;20118;-76
2021/12/09 12:20:58;;;;;;;10.63;4.07;;;205.00;2252.80;;;;;;5083944;28;20119;-75
2021/12/09 12:23:41;;;;;;;4.85;2.40;;;205.00;2252.80;;;;;;5082225;28;20032;-74
2021/12/09 12:26:30;;;;;;;5.68;2.83;;;205.10;2252.80;;;;;;5077722;28;20016;-75
2021/12/09 12:38:48;;;;;;;12.35;3.00;;;205.20;2252.80;;;;;;5043558;28;20090;-78
2021/12/09 12:41:09;;;;;;;14.60;4.32;;;205.10;2252.80;;;;;;5039232;28;20554;-83
2021/12/09 12:43:45;;;;;;;19.30;5.85;;;205.10;2252.80;;;;;;5040599;28;20029;-75
2021/12/09 12:46:31;;;;;;;;;;;205.10;2252.80;;;;;;5053737;28;20033;-77
2021/12/09 12:49:04;;;;;;;10.73;4.25;;;205.10;2252.80;;;;;;5053046;28;19955;-75
2021/12/09 12:51:50;;;;;;;8.88;5.63;;;205.10;2252.80;;;;;;5052674;28;20024;-74
2021/12/09 12:54:36;;;;;;;8.52;4.28;;;205.10;2252.80;;;;;;5052809;28;20041;-75
2021/12/09 12:57:13;;;;;;;22.80;4.70;;;205.00;2252.80;;;;;;5052697;28;20017;-78
2021/12/09 12:59:41;;;;;;;11.40;4.97;;;205.00;2252.80;;;;;;5036239;28;20653;-77
2021/12/09 13:05:16;;;;;;;22.73;4.65;;;205.10;2252.80;;;;;;5052989;28;20036;-78
2021/12/09 13:10:45;;;;;;;14.23;3.65;;;205.10;2252.80;;;;;;5052860;28;20028;-78
2021/12/09 13:13:26;;;;;;;9.93;4.68;;;205.10;2252.80;;;;;;5063874;28;20032;-78
2021/12/09 13:16:42;;;;;;;11.75;4.13;;;205.00;2252.80;;;;;;5094858;28;20027;-77
2021/12/09 13:19:20;;;;;;;11.82;5.97;;;205.00;2252.80;;;;;;5094275;28;20051;-76
2021/12/09 13:21:54;;;;;;;10.43;3.80;;;205.00;2252.80;;;;;;5093037;28;20123;-75
2021/12/09 13:24:21;;;;;;;9.82;4.97;;;205.10;2252.80;;;;;;5086179;28;20027;-75
2021/12/09 13:30:26;;;;;;;8.60;4.40;;;205.00;2252.80;;;;;;5075668;28;20046;-75
2021/12/09 13:38:40;;;;;;;9.48;5.47;;;205.10;2252.80;;;;;;5070675;28;20174;-75
2021/12/09 13:46:41;;;;;;;12.63;6.95;;;205.10;2252.80;;;;;;5070721;28;20064;-78
2021/12/09 13:56:53;;;;;;;13.02;6.53;;;180.10;2252.80;;;;;;5070292;28;20086;-78
2021/12/09 13:59:21;;;;;;;13.38;7.25;;;180.10;2252.80;;;;;;5071315;28;20367;-78